Purdys Mills, New York
Current Conditions -  °F | °C
As of 3:53 PM on Friday 28 Nov 2014 (Local Time) from KPBG Reporting Station
Overcast Overcast  
Wind Chill: 18°   Ceiling: 4900
Heat Index: 25°   Visibility: 10mi
Dew Point: 11°   Wind: 6mph
Humidity: 55%   Direction: 280°W
Pressure: 30.13"   Gusts: NA
Location:  44.8543°N, 73.663°W
Report Text: KPBG 282053Z AUTO 28005KT 10SM OVC049 M04/M12 A3013 RMK AO2 SLP207 60000 T10391117 53013
Loading
Personal Weather Stations






























Interactive Weather Map New forecast layout! Learn more

10-Day Weather Forecast

Advertisements
Track Severe Weather on mobile